GEFTA EGJB-EGLL
Flight info
| Callsign | GEFTA |
|---|---|
| Flight time | 1h 13m |
| Altitude | 7000 |
| Route | ORIST L982 ROXOG |
| Aircraft | DA42/L-SBDGRY/S |
Departure
| Time | 2026-04-22 21:37 |
|---|---|
| Airport | Guernsey Airport (EGJB) |
Arrival
| Time | 2026-04-22 22:50 |
|---|---|
| Airport | London Heathrow Airport (EGLL) |
| Time | Latitude | Longitude | Altitude | Speed | Heading |
|---|---|---|---|---|---|
| 2026-04-22 21:20 | 49.43292 | -2.59844 | 318 ft | 0 kts | 89° |
| 2026-04-22 21:29 | 49.43293 | -2.59843 | 318 ft | 1 kts | 75° |
| 2026-04-22 21:29 | 49.43296 | -2.59839 | 318 ft | 0 kts | 15° |
| 2026-04-22 21:30 | 49.43299 | -2.59838 | 318 ft | 0 kts | 5° |
| 2026-04-22 21:30 | 49.43319 | -2.59853 | 318 ft | 4 kts | 285° |
| 2026-04-22 21:30 | 49.43319 | -2.59856 | 318 ft | 1 kts | 284° |
| 2026-04-22 21:31 | 49.43317 | -2.59883 | 318 ft | 8 kts | 260° |
| 2026-04-22 21:31 | 49.43329 | -2.59954 | 317 ft | 6 kts | 329° |
| 2026-04-22 21:31 | 49.43340 | -2.60034 | 316 ft | 11 kts | 266° |
| 2026-04-22 21:31 | 49.43336 | -2.60179 | 314 ft | 16 kts | 268° |
| 2026-04-22 21:32 | 49.43331 | -2.60364 | 311 ft | 19 kts | 267° |
| 2026-04-22 21:32 | 49.43326 | -2.60570 | 308 ft | 19 kts | 275° |
| 2026-04-22 21:32 | 49.43372 | -2.60648 | 307 ft | 0 kts | 350° |
| 2026-04-22 21:35 | 49.43429 | -2.60657 | 308 ft | 18 kts | 357° |
| 2026-04-22 21:36 | 49.43486 | -2.60605 | 308 ft | 0 kts | 84° |
| 2026-04-22 21:36 | 49.43486 | -2.60600 | 308 ft | 7 kts | 84° |
| 2026-04-22 21:36 | 49.43497 | -2.60166 | 312 ft | 70 kts | 88° |
| 2026-04-22 21:36 | 49.43515 | -2.59262 | 403 ft | 92 kts | 91° |
| 2026-04-22 21:37 | 49.43485 | -2.58306 | 634 ft | 97 kts | 94° |
| 2026-04-22 21:37 | 49.43442 | -2.57260 | 864 ft | 101 kts | 94° |
| 2026-04-22 21:37 | 49.43451 | -2.56157 | 1092 ft | 104 kts | 87° |
| 2026-04-22 21:37 | 49.43500 | -2.55041 | 1320 ft | 107 kts | 81° |
| 2026-04-22 21:38 | 49.43628 | -2.53895 | 1569 ft | 106 kts | 81° |
| 2026-04-22 21:38 | 49.43670 | -2.52770 | 1818 ft | 107 kts | 91° |
| 2026-04-22 21:38 | 49.43696 | -2.51609 | 2000 ft | 114 kts | 84° |
| 2026-04-22 21:38 | 49.43766 | -2.50398 | 2199 ft | 117 kts | 87° |
| 2026-04-22 21:39 | 49.44070 | -2.49264 | 2379 ft | 120 kts | 43° |
| 2026-04-22 21:39 | 49.44883 | -2.48755 | 2414 ft | 131 kts | 13° |
| 2026-04-22 21:39 | 49.45753 | -2.48457 | 2645 ft | 125 kts | 9° |
| 2026-04-22 21:39 | 49.46616 | -2.48124 | 2788 ft | 128 kts | 16° |
| 2026-04-22 21:40 | 49.47481 | -2.47756 | 2895 ft | 133 kts | 15° |
| 2026-04-22 21:40 | 49.48379 | -2.47303 | 2993 ft | 135 kts | 20° |
| 2026-04-22 21:40 | 49.49296 | -2.46830 | 3018 ft | 141 kts | 18° |
| 2026-04-22 21:40 | 49.50262 | -2.46422 | 3053 ft | 144 kts | 12° |
| 2026-04-22 21:41 | 49.51237 | -2.46092 | 3151 ft | 142 kts | 14° |
| 2026-04-22 21:41 | 49.52165 | -2.45706 | 3327 ft | 137 kts | 14° |
| 2026-04-22 21:41 | 49.53094 | -2.45358 | 3442 ft | 137 kts | 12° |
| 2026-04-22 21:41 | 49.54025 | -2.45030 | 3559 ft | 138 kts | 12° |
| 2026-04-22 21:42 | 49.54960 | -2.44699 | 3678 ft | 138 kts | 12° |
| 2026-04-22 21:42 | 49.55887 | -2.44371 | 3777 ft | 140 kts | 12° |
| 2026-04-22 21:42 | 49.56859 | -2.44025 | 3776 ft | 146 kts | 12° |
| 2026-04-22 21:42 | 49.57864 | -2.43668 | 3785 ft | 150 kts | 12° |
| 2026-04-22 21:43 | 49.58887 | -2.43305 | 3777 ft | 152 kts | 12° |
| 2026-04-22 21:43 | 49.59919 | -2.42938 | 3777 ft | 153 kts | 12° |
| 2026-04-22 21:43 | 49.60957 | -2.42569 | 3777 ft | 153 kts | 12° |
| 2026-04-22 21:43 | 49.61998 | -2.42199 | 3780 ft | 154 kts | 12° |
| 2026-04-22 21:44 | 49.63041 | -2.41829 | 3777 ft | 154 kts | 12° |
| 2026-04-22 21:44 | 49.64085 | -2.41457 | 3776 ft | 154 kts | 12° |
| 2026-04-22 21:44 | 49.65128 | -2.41086 | 3777 ft | 154 kts | 12° |
| 2026-04-22 21:44 | 49.66171 | -2.40714 | 3777 ft | 154 kts | 12° |
| 2026-04-22 21:45 | 49.67215 | -2.40342 | 3777 ft | 154 kts | 12° |
| 2026-04-22 21:45 | 49.68261 | -2.39969 | 3777 ft | 154 kts | 12° |
| 2026-04-22 21:45 | 49.69305 | -2.39596 | 3781 ft | 154 kts | 12° |
| 2026-04-22 21:45 | 49.70350 | -2.39223 | 3783 ft | 154 kts | 12° |
| 2026-04-22 21:46 | 49.71357 | -2.38682 | 3768 ft | 155 kts | 36° |
| 2026-04-22 21:46 | 49.72000 | -2.37365 | 3788 ft | 155 kts | 61° |
| 2026-04-22 21:46 | 49.72493 | -2.35883 | 3782 ft | 155 kts | 63° |
| 2026-04-22 21:46 | 49.72974 | -2.34391 | 3788 ft | 155 kts | 63° |
| 2026-04-22 21:47 | 49.73597 | -2.33034 | 3780 ft | 155 kts | 50° |
| 2026-04-22 21:47 | 49.74276 | -2.31741 | 3787 ft | 155 kts | 51° |
| 2026-04-22 21:47 | 49.74957 | -2.30447 | 3786 ft | 155 kts | 50° |
| 2026-04-22 21:47 | 49.75652 | -2.29172 | 3780 ft | 155 kts | 49° |
| 2026-04-22 21:48 | 49.76349 | -2.27898 | 3780 ft | 155 kts | 49° |
| 2026-04-22 21:48 | 49.77046 | -2.26624 | 3780 ft | 155 kts | 49° |
| 2026-04-22 21:48 | 49.77733 | -2.25367 | 3789 ft | 155 kts | 49° |
| 2026-04-22 21:48 | 49.78430 | -2.24092 | 3785 ft | 155 kts | 49° |
| 2026-04-22 21:49 | 49.79127 | -2.22817 | 3784 ft | 155 kts | 49° |
| 2026-04-22 21:49 | 49.79824 | -2.21542 | 3780 ft | 155 kts | 49° |
| 2026-04-22 21:49 | 49.80521 | -2.20266 | 3780 ft | 155 kts | 49° |
| 2026-04-22 21:49 | 49.81220 | -2.18988 | 3785 ft | 156 kts | 49° |
| 2026-04-22 21:50 | 49.81919 | -2.17708 | 3780 ft | 156 kts | 49° |
| 2026-04-22 21:50 | 49.82620 | -2.16426 | 3784 ft | 156 kts | 49° |
| 2026-04-22 21:50 | 49.83321 | -2.15141 | 3781 ft | 156 kts | 49° |
| 2026-04-22 21:50 | 49.84022 | -2.13856 | 3782 ft | 156 kts | 49° |
| 2026-04-22 21:51 | 49.84724 | -2.12571 | 3783 ft | 156 kts | 49° |
| 2026-04-22 21:51 | 49.85425 | -2.11285 | 3784 ft | 156 kts | 49° |
| 2026-04-22 21:51 | 49.86128 | -2.09997 | 3784 ft | 156 kts | 49° |
| 2026-04-22 21:52 | 49.87530 | -2.07426 | 3793 ft | 156 kts | 49° |
| 2026-04-22 21:52 | 49.88229 | -2.06144 | 3802 ft | 156 kts | 49° |
| 2026-04-22 21:52 | 49.88926 | -2.04864 | 3837 ft | 154 kts | 49° |
| 2026-04-22 21:52 | 49.89602 | -2.03624 | 3962 ft | 148 kts | 49° |
| 2026-04-22 21:53 | 49.90258 | -2.02417 | 4088 ft | 145 kts | 49° |
| 2026-04-22 21:53 | 49.90905 | -2.01228 | 4213 ft | 143 kts | 49° |
| 2026-04-22 21:53 | 49.91546 | -2.00050 | 4338 ft | 143 kts | 49° |
| 2026-04-22 21:53 | 49.92184 | -1.98876 | 4463 ft | 142 kts | 49° |
| 2026-04-22 21:54 | 49.92822 | -1.97705 | 4588 ft | 142 kts | 49° |
| 2026-04-22 21:54 | 49.93459 | -1.96532 | 4713 ft | 142 kts | 49° |
| 2026-04-22 21:54 | 49.94096 | -1.95361 | 4838 ft | 142 kts | 49° |
| 2026-04-22 21:54 | 49.94734 | -1.94189 | 4963 ft | 142 kts | 49° |
| 2026-04-22 21:55 | 49.95371 | -1.93017 | 5088 ft | 142 kts | 49° |
| 2026-04-22 21:55 | 49.96009 | -1.91843 | 5214 ft | 142 kts | 49° |
| 2026-04-22 21:55 | 49.96647 | -1.90668 | 5339 ft | 142 kts | 49° |
| 2026-04-22 21:55 | 49.97287 | -1.89492 | 5464 ft | 143 kts | 49° |
| 2026-04-22 21:56 | 49.97927 | -1.88313 | 5589 ft | 143 kts | 49° |
| 2026-04-22 21:56 | 49.98568 | -1.87132 | 5714 ft | 143 kts | 49° |
| 2026-04-22 21:56 | 49.99211 | -1.85950 | 5840 ft | 143 kts | 49° |
| 2026-04-22 21:56 | 49.99854 | -1.84765 | 5965 ft | 144 kts | 49° |
| 2026-04-22 21:57 | 50.00498 | -1.83578 | 6090 ft | 144 kts | 49° |
| 2026-04-22 21:57 | 50.01143 | -1.82390 | 6215 ft | 144 kts | 49° |
| 2026-04-22 21:57 | 50.01570 | -1.81603 | 6298 ft | 144 kts | 49° |
| 2026-04-22 21:57 | 50.02218 | -1.80410 | 6424 ft | 144 kts | 49° |
| 2026-04-22 21:58 | 50.03075 | -1.78830 | 6592 ft | 145 kts | 49° |
| 2026-04-22 21:58 | 50.03514 | -1.78021 | 6674 ft | 145 kts | 49° |
| 2026-04-22 21:58 | 50.04374 | -1.76436 | 6839 ft | 145 kts | 49° |
| 2026-04-22 21:58 | 50.04814 | -1.75625 | 6927 ft | 145 kts | 49° |
| 2026-04-22 21:59 | 50.05688 | -1.74013 | 6998 ft | 151 kts | 49° |
| 2026-04-22 21:59 | 50.06151 | -1.73158 | 6999 ft | 155 kts | 49° |
| 2026-04-22 21:59 | 50.06853 | -1.71861 | 6999 ft | 158 kts | 49° |
| 2026-04-22 21:59 | 50.07567 | -1.70543 | 6995 ft | 160 kts | 49° |
| 2026-04-22 22:00 | 50.08286 | -1.69213 | 6999 ft | 161 kts | 49° |
| 2026-04-22 22:00 | 50.08998 | -1.67895 | 6999 ft | 162 kts | 49° |
| 2026-04-22 22:00 | 50.09723 | -1.66555 | 6999 ft | 162 kts | 49° |
| 2026-04-22 22:00 | 50.10448 | -1.65213 | 6999 ft | 162 kts | 49° |
| 2026-04-22 22:01 | 50.11174 | -1.63870 | 6996 ft | 162 kts | 50° |
| 2026-04-22 22:01 | 50.11900 | -1.62526 | 6999 ft | 162 kts | 50° |
| 2026-04-22 22:01 | 50.12626 | -1.61181 | 6999 ft | 162 kts | 50° |
| 2026-04-22 22:01 | 50.13352 | -1.59836 | 6994 ft | 162 kts | 50° |
| 2026-04-22 22:02 | 50.14078 | -1.58489 | 6999 ft | 162 kts | 50° |
| 2026-04-22 22:02 | 50.14806 | -1.57140 | 6999 ft | 162 kts | 50° |
| 2026-04-22 22:02 | 50.15532 | -1.55794 | 6999 ft | 162 kts | 50° |
| 2026-04-22 22:02 | 50.16258 | -1.54447 | 6999 ft | 162 kts | 50° |
| 2026-04-22 22:03 | 50.16984 | -1.53100 | 6999 ft | 162 kts | 50° |
| 2026-04-22 22:03 | 50.17710 | -1.51753 | 6996 ft | 162 kts | 50° |
| 2026-04-22 22:03 | 50.18436 | -1.50404 | 6994 ft | 162 kts | 50° |
| 2026-04-22 22:03 | 50.19162 | -1.49056 | 6999 ft | 162 kts | 50° |
| 2026-04-22 22:04 | 50.19888 | -1.47708 | 6993 ft | 162 kts | 50° |
| 2026-04-22 22:04 | 50.20731 | -1.46558 | 6995 ft | 162 kts | 31° |
| 2026-04-22 22:04 | 50.21711 | -1.45700 | 6996 ft | 162 kts | 28° |
| 2026-04-22 22:04 | 50.22702 | -1.44869 | 6994 ft | 162 kts | 27° |
| 2026-04-22 22:05 | 50.23693 | -1.44038 | 6991 ft | 162 kts | 27° |
| 2026-04-22 22:05 | 50.24686 | -1.43207 | 6998 ft | 162 kts | 27° |
| 2026-04-22 22:05 | 50.25676 | -1.42380 | 6997 ft | 162 kts | 27° |
| 2026-04-22 22:05 | 50.26669 | -1.41550 | 6998 ft | 162 kts | 27° |
| 2026-04-22 22:06 | 50.27661 | -1.40721 | 6994 ft | 162 kts | 27° |
| 2026-04-22 22:06 | 50.28653 | -1.39892 | 6993 ft | 162 kts | 27° |
| 2026-04-22 22:06 | 50.29645 | -1.39062 | 6993 ft | 162 kts | 27° |
| 2026-04-22 22:06 | 50.30637 | -1.38232 | 6998 ft | 162 kts | 27° |
| 2026-04-22 22:07 | 50.31629 | -1.37402 | 6998 ft | 162 kts | 27° |
| 2026-04-22 22:07 | 50.32621 | -1.36572 | 6994 ft | 162 kts | 27° |
| 2026-04-22 22:07 | 50.33613 | -1.35741 | 6994 ft | 162 kts | 27° |
| 2026-04-22 22:07 | 50.34604 | -1.34911 | 6997 ft | 162 kts | 27° |
| 2026-04-22 22:08 | 50.35596 | -1.34080 | 6995 ft | 162 kts | 27° |
| 2026-04-22 22:08 | 50.36588 | -1.33249 | 6994 ft | 162 kts | 27° |
| 2026-04-22 22:08 | 50.37581 | -1.32416 | 6993 ft | 162 kts | 27° |
| 2026-04-22 22:08 | 50.38573 | -1.31585 | 6997 ft | 162 kts | 27° |
| 2026-04-22 22:09 | 50.39564 | -1.30753 | 6998 ft | 162 kts | 27° |
| 2026-04-22 22:09 | 50.40556 | -1.29921 | 6995 ft | 162 kts | 27° |
| 2026-04-22 22:09 | 50.41548 | -1.29089 | 6995 ft | 162 kts | 27° |
| 2026-04-22 22:09 | 50.42540 | -1.28256 | 6995 ft | 162 kts | 27° |
| 2026-04-22 22:10 | 50.43532 | -1.27424 | 6995 ft | 162 kts | 27° |
| 2026-04-22 22:10 | 50.44552 | -1.26690 | 6990 ft | 161 kts | 12° |
| 2026-04-22 22:10 | 50.45645 | -1.26468 | 7000 ft | 161 kts | 4° |
| 2026-04-22 22:10 | 50.46759 | -1.26328 | 6996 ft | 161 kts | 4° |
| 2026-04-22 22:11 | 50.47874 | -1.26194 | 7001 ft | 161 kts | 4° |
| 2026-04-22 22:11 | 50.48990 | -1.26061 | 7001 ft | 161 kts | 4° |
| 2026-04-22 22:11 | 50.50106 | -1.25929 | 7001 ft | 161 kts | 4° |
| 2026-04-22 22:11 | 50.51222 | -1.25798 | 7001 ft | 161 kts | 4° |
| 2026-04-22 22:12 | 50.52338 | -1.25667 | 7001 ft | 161 kts | 4° |
| 2026-04-22 22:12 | 50.53454 | -1.25536 | 7001 ft | 161 kts | 4° |
| 2026-04-22 22:12 | 50.54570 | -1.25405 | 6998 ft | 161 kts | 4° |
| 2026-04-22 22:12 | 50.55686 | -1.25274 | 7001 ft | 161 kts | 4° |
| 2026-04-22 22:13 | 50.56805 | -1.25143 | 7001 ft | 161 kts | 4° |
| 2026-04-22 22:13 | 50.57921 | -1.25012 | 7001 ft | 161 kts | 4° |
| 2026-04-22 22:13 | 50.59037 | -1.24881 | 7000 ft | 161 kts | 4° |
| 2026-04-22 22:13 | 50.60152 | -1.24750 | 7000 ft | 161 kts | 4° |
| 2026-04-22 22:14 | 50.61270 | -1.24619 | 7001 ft | 161 kts | 4° |
| 2026-04-22 22:14 | 50.62388 | -1.24487 | 7001 ft | 161 kts | 4° |
| 2026-04-22 22:14 | 50.63508 | -1.24356 | 7001 ft | 161 kts | 4° |
| 2026-04-22 22:14 | 50.64626 | -1.24225 | 7001 ft | 161 kts | 4° |
| 2026-04-22 22:15 | 50.65744 | -1.24094 | 6999 ft | 161 kts | 4° |
| 2026-04-22 22:15 | 50.66861 | -1.23964 | 6997 ft | 161 kts | 3° |
| 2026-04-22 22:15 | 50.67979 | -1.23857 | 7001 ft | 161 kts | 2° |
| 2026-04-22 22:15 | 50.69097 | -1.23755 | 7001 ft | 161 kts | 2° |
| 2026-04-22 22:16 | 50.70216 | -1.23655 | 7001 ft | 161 kts | 2° |
| 2026-04-22 22:16 | 50.71334 | -1.23554 | 7001 ft | 161 kts | 2° |
| 2026-04-22 22:16 | 50.72452 | -1.23454 | 6998 ft | 161 kts | 2° |
| 2026-04-22 22:16 | 50.73570 | -1.23354 | 7001 ft | 161 kts | 2° |
| 2026-04-22 22:17 | 50.74690 | -1.23253 | 7001 ft | 161 kts | 2° |
| 2026-04-22 22:17 | 50.75808 | -1.23152 | 7000 ft | 161 kts | 2° |
| 2026-04-22 22:17 | 50.76925 | -1.23052 | 7001 ft | 161 kts | 2° |
| 2026-04-22 22:17 | 50.78045 | -1.22951 | 7001 ft | 161 kts | 2° |
| 2026-04-22 22:18 | 50.79161 | -1.22850 | 7001 ft | 161 kts | 2° |
| 2026-04-22 22:18 | 50.80279 | -1.22750 | 6997 ft | 161 kts | 2° |
| 2026-04-22 22:18 | 50.81399 | -1.22649 | 7001 ft | 161 kts | 2° |
| 2026-04-22 22:18 | 50.82516 | -1.22549 | 7000 ft | 161 kts | 2° |
| 2026-04-22 22:19 | 50.83634 | -1.22449 | 7001 ft | 161 kts | 2° |
| 2026-04-22 22:19 | 50.84752 | -1.22348 | 7001 ft | 161 kts | 2° |
| 2026-04-22 22:19 | 50.85871 | -1.22248 | 7001 ft | 161 kts | 2° |
| 2026-04-22 22:19 | 50.86989 | -1.22147 | 7001 ft | 161 kts | 2° |
| 2026-04-22 22:20 | 50.88107 | -1.22047 | 6996 ft | 161 kts | 2° |
| 2026-04-22 22:20 | 50.89226 | -1.21946 | 7001 ft | 161 kts | 2° |
| 2026-04-22 22:20 | 50.90343 | -1.21846 | 7001 ft | 161 kts | 2° |
| 2026-04-22 22:20 | 50.91461 | -1.21745 | 7001 ft | 161 kts | 2° |
| 2026-04-22 22:21 | 50.92579 | -1.21645 | 7001 ft | 161 kts | 2° |
| 2026-04-22 22:21 | 50.93686 | -1.21416 | 6988 ft | 162 kts | 21° |
| 2026-04-22 22:21 | 50.94564 | -1.20324 | 7005 ft | 162 kts | 46° |
| 2026-04-22 22:21 | 50.95308 | -1.19010 | 7005 ft | 162 kts | 48° |
| 2026-04-22 22:22 | 50.96050 | -1.17663 | 7006 ft | 162 kts | 49° |
| 2026-04-22 22:22 | 50.96792 | -1.16312 | 7006 ft | 163 kts | 49° |
| 2026-04-22 22:22 | 50.97535 | -1.14960 | 7001 ft | 163 kts | 49° |
| 2026-04-22 22:22 | 50.98276 | -1.13607 | 7005 ft | 162 kts | 49° |
| 2026-04-22 22:23 | 50.99017 | -1.12254 | 7005 ft | 162 kts | 49° |
| 2026-04-22 22:23 | 50.99753 | -1.10895 | 7005 ft | 163 kts | 51° |
| 2026-04-22 22:23 | 51.00257 | -1.09296 | 7005 ft | 163 kts | 71° |
| 2026-04-22 22:23 | 51.00576 | -1.07572 | 7001 ft | 163 kts | 74° |
| 2026-04-22 22:24 | 51.00877 | -1.05838 | 7001 ft | 163 kts | 75° |
| 2026-04-22 22:24 | 51.01142 | -1.04086 | 7006 ft | 163 kts | 77° |
| 2026-04-22 22:24 | 51.01385 | -1.02327 | 7003 ft | 163 kts | 77° |
| 2026-04-22 22:24 | 51.01646 | -1.00576 | 7003 ft | 163 kts | 75° |
| 2026-04-22 22:25 | 51.01957 | -0.98845 | 7002 ft | 163 kts | 72° |
| 2026-04-22 22:25 | 51.02347 | -0.97157 | 7004 ft | 163 kts | 65° |
| 2026-04-22 22:25 | 51.02850 | -0.95545 | 7004 ft | 163 kts | 63° |
| 2026-04-22 22:25 | 51.03419 | -0.93992 | 6997 ft | 163 kts | 56° |
| 2026-04-22 22:26 | 51.04110 | -0.92572 | 7003 ft | 162 kts | 49° |
| 2026-04-22 22:26 | 51.04846 | -0.91210 | 6996 ft | 162 kts | 49° |
| 2026-04-22 22:26 | 51.05585 | -0.89852 | 7004 ft | 162 kts | 49° |
| 2026-04-22 22:26 | 51.06325 | -0.88493 | 7004 ft | 162 kts | 49° |
| 2026-04-22 22:27 | 51.07065 | -0.87135 | 6997 ft | 163 kts | 49° |
| 2026-04-22 22:27 | 51.07805 | -0.85777 | 7004 ft | 163 kts | 49° |
| 2026-04-22 22:27 | 51.08546 | -0.84418 | 7003 ft | 163 kts | 49° |
| 2026-04-22 22:27 | 51.09286 | -0.83059 | 7004 ft | 162 kts | 49° |
| 2026-04-22 22:28 | 51.10026 | -0.81701 | 7004 ft | 162 kts | 49° |
| 2026-04-22 22:28 | 51.10765 | -0.80342 | 7004 ft | 163 kts | 49° |
| 2026-04-22 22:28 | 51.11505 | -0.78982 | 7004 ft | 163 kts | 49° |
| 2026-04-22 22:28 | 51.12235 | -0.77640 | 7003 ft | 163 kts | 49° |
| 2026-04-22 22:29 | 51.12976 | -0.76279 | 7004 ft | 163 kts | 49° |
| 2026-04-22 22:29 | 51.13716 | -0.74917 | 7004 ft | 163 kts | 49° |
| 2026-04-22 22:29 | 51.14457 | -0.73555 | 6999 ft | 163 kts | 49° |
| 2026-04-22 22:29 | 51.15197 | -0.72194 | 7004 ft | 163 kts | 49° |
| 2026-04-22 22:30 | 51.15936 | -0.70832 | 6999 ft | 162 kts | 49° |
| 2026-04-22 22:30 | 51.16675 | -0.69472 | 7004 ft | 162 kts | 49° |
| 2026-04-22 22:30 | 51.17415 | -0.68109 | 7004 ft | 162 kts | 49° |
| 2026-04-22 22:30 | 51.18154 | -0.66747 | 7004 ft | 162 kts | 49° |
| 2026-04-22 22:31 | 51.18894 | -0.65385 | 7004 ft | 162 kts | 49° |
| 2026-04-22 22:31 | 51.19632 | -0.64024 | 6999 ft | 162 kts | 49° |
| 2026-04-22 22:31 | 51.20371 | -0.62662 | 6998 ft | 163 kts | 49° |
| 2026-04-22 22:31 | 51.21109 | -0.61299 | 7004 ft | 162 kts | 49° |
| 2026-04-22 22:32 | 51.21850 | -0.59933 | 7004 ft | 162 kts | 49° |
| 2026-04-22 22:32 | 51.22588 | -0.58571 | 7000 ft | 162 kts | 49° |
| 2026-04-22 22:32 | 51.23327 | -0.57208 | 7004 ft | 162 kts | 49° |
| 2026-04-22 22:32 | 51.24065 | -0.55844 | 7004 ft | 163 kts | 49° |
| 2026-04-22 22:33 | 51.24805 | -0.54479 | 7004 ft | 163 kts | 49° |
| 2026-04-22 22:33 | 51.25543 | -0.53113 | 7004 ft | 163 kts | 49° |
| 2026-04-22 22:33 | 51.26282 | -0.51748 | 7004 ft | 162 kts | 49° |
| 2026-04-22 22:33 | 51.27022 | -0.50380 | 7004 ft | 162 kts | 49° |
| 2026-04-22 22:34 | 51.27760 | -0.49015 | 7004 ft | 162 kts | 49° |
| 2026-04-22 22:34 | 51.28688 | -0.48050 | 6994 ft | 162 kts | 12° |
| 2026-04-22 22:34 | 51.29771 | -0.48292 | 6993 ft | 160 kts | 330° |
| 2026-04-22 22:34 | 51.30667 | -0.49341 | 7000 ft | 159 kts | 321° |
| 2026-04-22 22:35 | 51.31522 | -0.50464 | 6995 ft | 160 kts | 312° |
| 2026-04-22 22:35 | 51.32026 | -0.52024 | 6998 ft | 159 kts | 289° |
| 2026-04-22 22:35 | 51.32382 | -0.53693 | 6998 ft | 159 kts | 288° |
| 2026-04-22 22:35 | 51.32720 | -0.55375 | 7002 ft | 159 kts | 287° |
| 2026-04-22 22:36 | 51.33045 | -0.57062 | 6998 ft | 159 kts | 287° |
| 2026-04-22 22:36 | 51.33368 | -0.58751 | 7002 ft | 159 kts | 287° |
| 2026-04-22 22:36 | 51.33688 | -0.60420 | 7003 ft | 159 kts | 287° |
| 2026-04-22 22:36 | 51.34010 | -0.62109 | 7001 ft | 159 kts | 287° |
| 2026-04-22 22:37 | 51.34328 | -0.63802 | 6997 ft | 159 kts | 286° |
| 2026-04-22 22:37 | 51.34630 | -0.65446 | 6824 ft | 151 kts | 286° |
| 2026-04-22 22:37 | 51.34924 | -0.67143 | 6185 ft | 165 kts | 284° |
| 2026-04-22 22:37 | 51.35186 | -0.68900 | 5847 ft | 157 kts | 282° |
| 2026-04-22 22:38 | 51.35313 | -0.70575 | 5585 ft | 147 kts | 265° |
| 2026-04-22 22:38 | 51.34872 | -0.72097 | 5002 ft | 160 kts | 224° |
| 2026-04-22 22:38 | 51.33832 | -0.72761 | 4370 ft | 168 kts | 180° |
| 2026-04-22 22:38 | 51.32867 | -0.71949 | 4047 ft | 161 kts | 122° |
| 2026-04-22 22:39 | 51.32718 | -0.70288 | 3740 ft | 154 kts | 73° |
| 2026-04-22 22:39 | 51.33403 | -0.69043 | 3295 ft | 155 kts | 19° |
| 2026-04-22 22:39 | 51.34404 | -0.69417 | 2796 ft | 157 kts | 316° |
| 2026-04-22 22:39 | 51.34895 | -0.70806 | 2632 ft | 142 kts | 278° |
| 2026-04-22 22:40 | 51.35073 | -0.72353 | 2488 ft | 138 kts | 291° |
| 2026-04-22 22:40 | 51.35511 | -0.73702 | 2321 ft | 140 kts | 301° |
| 2026-04-22 22:40 | 51.36096 | -0.74891 | 2318 ft | 130 kts | 308° |
| 2026-04-22 22:40 | 51.36545 | -0.76108 | 2274 ft | 126 kts | 296° |
| 2026-04-22 22:41 | 51.36976 | -0.77299 | 2262 ft | 123 kts | 302° |
| 2026-04-22 22:41 | 51.37541 | -0.78302 | 2254 ft | 120 kts | 327° |
| 2026-04-22 22:41 | 51.38328 | -0.78673 | 2245 ft | 119 kts | 353° |
| 2026-04-22 22:41 | 51.39123 | -0.78905 | 2301 ft | 114 kts | 349° |
| 2026-04-22 22:42 | 51.39908 | -0.79094 | 2301 ft | 114 kts | 355° |
| 2026-04-22 22:42 | 51.40729 | -0.79068 | 2269 ft | 122 kts | 3° |
| 2026-04-22 22:42 | 51.41577 | -0.78958 | 2312 ft | 122 kts | 8° |
| 2026-04-22 22:42 | 51.42448 | -0.78828 | 2315 ft | 130 kts | 0° |
| 2026-04-22 22:43 | 51.43347 | -0.78785 | 2421 ft | 127 kts | 356° |
| 2026-04-22 22:43 | 51.44238 | -0.78900 | 2476 ft | 129 kts | 353° |
| 2026-04-22 22:43 | 51.45146 | -0.78978 | 2485 ft | 134 kts | 359° |
| 2026-04-22 22:43 | 51.46070 | -0.78917 | 2514 ft | 135 kts | 5° |
| 2026-04-22 22:44 | 51.46940 | -0.78354 | 2525 ft | 138 kts | 38° |
| 2026-04-22 22:44 | 51.47442 | -0.77078 | 2523 ft | 140 kts | 80° |
| 2026-04-22 22:44 | 51.47477 | -0.75520 | 2568 ft | 138 kts | 88° |
| 2026-04-22 22:44 | 51.47512 | -0.74505 | 2673 ft | 133 kts | 87° |
| 2026-04-22 22:45 | 51.47531 | -0.73022 | 2725 ft | 134 kts | 89° |
| 2026-04-22 22:45 | 51.47560 | -0.71072 | 2703 ft | 129 kts | 87° |
| 2026-04-22 22:45 | 51.47571 | -0.70106 | 2670 ft | 125 kts | 91° |
| 2026-04-22 22:45 | 51.47537 | -0.68781 | 2593 ft | 114 kts | 95° |
| 2026-04-22 22:46 | 51.47487 | -0.67516 | 2434 ft | 114 kts | 94° |
| 2026-04-22 22:46 | 51.47482 | -0.66339 | 2383 ft | 104 kts | 86° |
| 2026-04-22 22:46 | 51.47524 | -0.65142 | 2142 ft | 110 kts | 87° |
| 2026-04-22 22:46 | 51.47594 | -0.63928 | 1932 ft | 110 kts | 83° |
| 2026-04-22 22:47 | 51.47616 | -0.62703 | 1740 ft | 109 kts | 90° |
| 2026-04-22 22:47 | 51.47600 | -0.61504 | 1603 ft | 105 kts | 91° |
| 2026-04-22 22:47 | 51.47582 | -0.60341 | 1463 ft | 105 kts | 87° |
| 2026-04-22 22:47 | 51.47611 | -0.59191 | 1377 ft | 100 kts | 83° |
| 2026-04-22 22:48 | 51.47637 | -0.58088 | 1303 ft | 98 kts | 89° |
| 2026-04-22 22:48 | 51.47647 | -0.56972 | 1156 ft | 102 kts | 87° |
| 2026-04-22 22:48 | 51.47686 | -0.55844 | 1014 ft | 103 kts | 89° |
| 2026-04-22 22:48 | 51.47698 | -0.54674 | 828 ft | 106 kts | 91° |
| 2026-04-22 22:49 | 51.47659 | -0.53537 | 748 ft | 99 kts | 90° |
| 2026-04-22 22:49 | 51.47664 | -0.52443 | 649 ft | 99 kts | 86° |
| 2026-04-22 22:49 | 51.47702 | -0.51298 | 434 ft | 106 kts | 85° |
| 2026-04-22 22:49 | 51.47721 | -0.50209 | 393 ft | 90 kts | 89° |
| 2026-04-22 22:50 | 51.47737 | -0.49221 | 224 ft | 87 kts | 89° |
| 2026-04-22 22:50 | 51.47745 | -0.48273 | 96 ft | 76 kts | 87° |
| 2026-04-22 22:50 | 51.47750 | -0.47601 | 81 ft | 49 kts | 89° |
| 2026-04-22 22:50 | 51.47752 | -0.47279 | 82 ft | 0 kts | 89° |